sensor_id;sensor_type;location;lat;lon;timestamp;P1;durP1;ratioP1;P2;durP2;ratioP2
37843;SDS011;63793;57.632;18.292;2023-07-13T00:00:47;7.57;;;6.88;;
37843;SDS011;63793;57.632;18.292;2023-07-13T00:03:14;9.20;;;7.70;;
37843;SDS011;63793;57.632;18.292;2023-07-13T00:05:41;9.88;;;8.85;;
37843;SDS011;63793;57.632;18.292;2023-07-13T00:08:09;12.85;;;7.28;;
37843;SDS011;63793;57.632;18.292;2023-07-13T00:10:40;8.40;;;7.30;;
37843;SDS011;63793;57.632;18.292;2023-07-13T00:15:35;8.95;;;5.28;;
37843;SDS011;63793;57.632;18.292;2023-07-13T00:18:02;6.63;;;4.50;;
37843;SDS011;63793;57.632;18.292;2023-07-13T00:20:29;4.90;;;4.40;;
37843;SDS011;63793;57.632;18.292;2023-07-13T00:22:56;4.35;;;3.80;;
37843;SDS011;63793;57.632;18.292;2023-07-13T00:25:24;6.80;;;4.57;;
37843;SDS011;63793;57.632;18.292;2023-07-13T00:27:54;3.97;;;3.55;;
37843;SDS011;63793;57.632;18.292;2023-07-13T00:30:21;4.10;;;3.70;;
37843;SDS011;63793;57.632;18.292;2023-07-13T00:32:49;3.53;;;3.28;;
37843;SDS011;63793;57.632;18.292;2023-07-13T00:35:30;4.15;;;2.83;;
37843;SDS011;63793;57.632;18.292;2023-07-13T00:37:57;3.03;;;2.80;;
37843;SDS011;63793;57.632;18.292;2023-07-13T00:40:24;6.50;;;2.85;;
37843;SDS011;63793;57.632;18.292;2023-07-13T00:42:52;3.33;;;3.13;;
37843;SDS011;63793;57.632;18.292;2023-07-13T00:47:46;3.42;;;2.42;;
37843;SDS011;63793;57.632;18.292;2023-07-13T00:50:14;3.03;;;2.67;;
37843;SDS011;63793;57.632;18.292;2023-07-13T00:52:44;5.18;;;2.40;;
37843;SDS011;63793;57.632;18.292;2023-07-13T00:55:14;2.90;;;2.45;;
37843;SDS011;63793;57.632;18.292;2023-07-13T00:57:43;3.95;;;2.78;;
37843;SDS011;63793;57.632;18.292;2023-07-13T01:00:11;3.05;;;2.72;;
37843;SDS011;63793;57.632;18.292;2023-07-13T01:02:40;3.15;;;2.80;;
37843;SDS011;63793;57.632;18.292;2023-07-13T01:05:10;5.53;;;2.97;;
37843;SDS011;63793;57.632;18.292;2023-07-13T01:07:38;2.95;;;2.58;;
37843;SDS011;63793;57.632;18.292;2023-07-13T01:10:05;2.80;;;2.47;;
37843;SDS011;63793;57.632;18.292;2023-07-13T01:12:33;4.35;;;2.83;;
37843;SDS011;63793;57.632;18.292;2023-07-13T01:15:01;2.45;;;2.22;;
37843;SDS011;63793;57.632;18.292;2023-07-13T01:17:28;4.63;;;2.78;;
37843;SDS011;63793;57.632;18.292;2023-07-13T01:19:55;3.40;;;2.53;;
37843;SDS011;63793;57.632;18.292;2023-07-13T01:22:23;3.45;;;2.75;;
37843;SDS011;63793;57.632;18.292;2023-07-13T01:24:53;2.55;;;2.03;;
37843;SDS011;63793;57.632;18.292;2023-07-13T01:27:21;3.80;;;3.22;;
37843;SDS011;63793;57.632;18.292;2023-07-13T01:29:51;4.57;;;3.00;;
37843;SDS011;63793;57.632;18.292;2023-07-13T01:32:20;5.20;;;2.88;;
37843;SDS011;63793;57.632;18.292;2023-07-13T01:34:54;4.60;;;3.30;;
37843;SDS011;63793;57.632;18.292;2023-07-13T01:37:21;7.50;;;3.22;;
37843;SDS011;63793;57.632;18.292;2023-07-13T01:39:50;5.90;;;3.67;;
37843;SDS011;63793;57.632;18.292;2023-07-13T01:42:18;4.60;;;2.35;;
37843;SDS011;63793;57.632;18.292;2023-07-13T01:44:47;5.10;;;2.90;;
37843;SDS011;63793;57.632;18.292;2023-07-13T01:47:14;4.10;;;2.65;;
37843;SDS011;63793;57.632;18.292;2023-07-13T01:49:40;5.55;;;3.25;;
37843;SDS011;63793;57.632;18.292;2023-07-13T01:52:08;5.10;;;3.60;;
37843;SDS011;63793;57.632;18.292;2023-07-13T01:54:34;3.80;;;3.50;;
37843;SDS011;63793;57.632;18.292;2023-07-13T01:57:01;3.92;;;3.40;;
37843;SDS011;63793;57.632;18.292;2023-07-13T01:59:30;4.13;;;3.83;;
37843;SDS011;63793;57.632;18.292;2023-07-13T02:01:57;3.90;;;3.05;;
37843;SDS011;63793;57.632;18.292;2023-07-13T02:04:24;4.68;;;2.97;;
37843;SDS011;63793;57.632;18.292;2023-07-13T02:06:51;4.95;;;2.97;;
37843;SDS011;63793;57.632;18.292;2023-07-13T02:09:17;4.35;;;3.20;;
37843;SDS011;63793;57.632;18.292;2023-07-13T02:11:44;6.43;;;4.13;;
37843;SDS011;63793;57.632;18.292;2023-07-13T02:14:11;6.03;;;2.92;;
37843;SDS011;63793;57.632;18.292;2023-07-13T02:16:38;3.13;;;2.72;;
37843;SDS011;63793;57.632;18.292;2023-07-13T02:19:05;5.22;;;3.20;;
37843;SDS011;63793;57.632;18.292;2023-07-13T02:21:32;8.77;;;3.72;;
37843;SDS011;63793;57.632;18.292;2023-07-13T02:23:59;5.53;;;3.45;;
37843;SDS011;63793;57.632;18.292;2023-07-13T02:26:27;2.92;;;2.70;;
37843;SDS011;63793;57.632;18.292;2023-07-13T02:28:54;3.50;;;3.25;;
37843;SDS011;63793;57.632;18.292;2023-07-13T02:31:21;4.93;;;3.25;;
37843;SDS011;63793;57.632;18.292;2023-07-13T02:33:48;6.25;;;3.30;;
37843;SDS011;63793;57.632;18.292;2023-07-13T02:36:16;4.63;;;2.95;;
37843;SDS011;63793;57.632;18.292;2023-07-13T02:38:44;3.58;;;3.00;;
37843;SDS011;63793;57.632;18.292;2023-07-13T02:41:11;3.28;;;2.97;;
37843;SDS011;63793;57.632;18.292;2023-07-13T02:43:39;8.50;;;3.13;;
37843;SDS011;63793;57.632;18.292;2023-07-13T02:46:08;4.35;;;3.78;;
37843;SDS011;63793;57.632;18.292;2023-07-13T02:48:36;5.13;;;3.95;;
37843;SDS011;63793;57.632;18.292;2023-07-13T02:51:04;5.45;;;4.43;;
37843;SDS011;63793;57.632;18.292;2023-07-13T02:53:31;3.63;;;3.25;;
37843;SDS011;63793;57.632;18.292;2023-07-13T02:55:58;6.28;;;3.53;;
37843;SDS011;63793;57.632;18.292;2023-07-13T02:58:26;5.30;;;3.80;;
37843;SDS011;63793;57.632;18.292;2023-07-13T03:00:53;6.95;;;4.30;;
37843;SDS011;63793;57.632;18.292;2023-07-13T03:03:20;5.68;;;3.92;;
37843;SDS011;63793;57.632;18.292;2023-07-13T03:05:47;5.10;;;3.70;;
37843;SDS011;63793;57.632;18.292;2023-07-13T03:08:21;8.35;;;3.60;;
37843;SDS011;63793;57.632;18.292;2023-07-13T03:10:58;7.05;;;4.28;;
37843;SDS011;63793;57.632;18.292;2023-07-13T03:13:32;9.20;;;4.25;;
37843;SDS011;63793;57.632;18.292;2023-07-13T03:15:59;3.78;;;3.40;;
37843;SDS011;63793;57.632;18.292;2023-07-13T03:18:28;6.82;;;3.53;;
37843;SDS011;63793;57.632;18.292;2023-07-13T03:20:59;5.00;;;4.30;;
37843;SDS011;63793;57.632;18.292;2023-07-13T03:23:26;5.22;;;4.50;;
37843;SDS011;63793;57.632;18.292;2023-07-13T03:26:09;5.15;;;3.60;;
37843;SDS011;63793;57.632;18.292;2023-07-13T03:28:40;3.92;;;3.63;;
37843;SDS011;63793;57.632;18.292;2023-07-13T03:31:16;4.57;;;3.42;;
37843;SDS011;63793;57.632;18.292;2023-07-13T03:33:47;4.78;;;3.47;;
37843;SDS011;63793;57.632;18.292;2023-07-13T03:36:19;5.95;;;4.05;;
37843;SDS011;63793;57.632;18.292;2023-07-13T03:38:52;4.05;;;3.60;;
37843;SDS011;63793;57.632;18.292;2023-07-13T03:41:24;5.00;;;3.55;;
37843;SDS011;63793;57.632;18.292;2023-07-13T03:43:53;6.90;;;4.93;;
37843;SDS011;63793;57.632;18.292;2023-07-13T03:46:22;6.77;;;3.80;;
37843;SDS011;63793;57.632;18.292;2023-07-13T03:48:49;5.88;;;3.35;;
37843;SDS011;63793;57.632;18.292;2023-07-13T03:51:17;6.57;;;3.42;;
37843;SDS011;63793;57.632;18.292;2023-07-13T03:53:45;4.03;;;3.40;;
37843;SDS011;63793;57.632;18.292;2023-07-13T03:56:16;7.00;;;3.63;;
37843;SDS011;63793;57.632;18.292;2023-07-13T03:58:46;7.60;;;4.28;;
37843;SDS011;63793;57.632;18.292;2023-07-13T04:01:17;5.13;;;4.18;;
37843;SDS011;63793;57.632;18.292;2023-07-13T04:03:46;5.93;;;4.10;;
37843;SDS011;63793;57.632;18.292;2023-07-13T04:06:15;5.18;;;4.63;;
37843;SDS011;63793;57.632;18.292;2023-07-13T04:08:51;5.05;;;4.18;;
37843;SDS011;63793;57.632;18.292;2023-07-13T04:11:27;5.57;;;4.15;;
37843;SDS011;63793;57.632;18.292;2023-07-13T04:13:55;6.95;;;4.75;;
37843;SDS011;63793;57.632;18.292;2023-07-13T04:16:22;5.35;;;4.18;;
37843;SDS011;63793;57.632;18.292;2023-07-13T04:18:50;7.30;;;3.78;;
37843;SDS011;63793;57.632;18.292;2023-07-13T04:21:21;5.32;;;3.63;;
37843;SDS011;63793;57.632;18.292;2023-07-13T04:23:48;11.75;;;5.00;;
37843;SDS011;63793;57.632;18.292;2023-07-13T04:26:15;10.02;;;4.47;;
37843;SDS011;63793;57.632;18.292;2023-07-13T04:28:42;6.22;;;4.00;;
37843;SDS011;63793;57.632;18.292;2023-07-13T04:31:09;8.57;;;3.58;;
37843;SDS011;63793;57.632;18.292;2023-07-13T04:33:36;4.85;;;4.38;;
37843;SDS011;63793;57.632;18.292;2023-07-13T04:36:03;6.13;;;4.63;;
37843;SDS011;63793;57.632;18.292;2023-07-13T04:38:31;6.47;;;4.78;;
37843;SDS011;63793;57.632;18.292;2023-07-13T04:41:00;6.45;;;4.82;;
37843;SDS011;63793;57.632;18.292;2023-07-13T04:43:28;5.10;;;4.60;;
37843;SDS011;63793;57.632;18.292;2023-07-13T04:45:56;7.20;;;4.85;;
37843;SDS011;63793;57.632;18.292;2023-07-13T04:48:23;5.13;;;4.15;;
37843;SDS011;63793;57.632;18.292;2023-07-13T04:50:54;6.28;;;4.55;;
37843;SDS011;63793;57.632;18.292;2023-07-13T04:53:23;5.70;;;4.60;;
37843;SDS011;63793;57.632;18.292;2023-07-13T04:55:50;5.68;;;5.18;;
37843;SDS011;63793;57.632;18.292;2023-07-13T04:58:17;5.70;;;4.40;;
37843;SDS011;63793;57.632;18.292;2023-07-13T05:00:44;17.52;;;5.85;;
37843;SDS011;63793;57.632;18.292;2023-07-13T05:03:11;8.40;;;4.10;;
37843;SDS011;63793;57.632;18.292;2023-07-13T05:05:38;5.68;;;4.85;;
37843;SDS011;63793;57.632;18.292;2023-07-13T05:08:05;6.38;;;5.80;;
37843;SDS011;63793;57.632;18.292;2023-07-13T05:10:34;5.35;;;4.63;;
37843;SDS011;63793;57.632;18.292;2023-07-13T05:13:02;5.28;;;4.18;;
37843;SDS011;63793;57.632;18.292;2023-07-13T05:15:29;7.45;;;5.40;;
37843;SDS011;63793;57.632;18.292;2023-07-13T05:17:56;5.35;;;4.85;;
37843;SDS011;63793;57.632;18.292;2023-07-13T05:20:23;5.78;;;4.72;;
37843;SDS011;63793;57.632;18.292;2023-07-13T05:22:50;5.20;;;4.70;;
37843;SDS011;63793;57.632;18.292;2023-07-13T05:25:17;7.07;;;4.93;;
37843;SDS011;63793;57.632;18.292;2023-07-13T05:27:44;12.32;;;5.55;;
37843;SDS011;63793;57.632;18.292;2023-07-13T05:30:12;7.97;;;4.60;;
37843;SDS011;63793;57.632;18.292;2023-07-13T05:32:40;10.45;;;4.97;;
37843;SDS011;63793;57.632;18.292;2023-07-13T05:35:07;5.20;;;4.80;;
37843;SDS011;63793;57.632;18.292;2023-07-13T05:37:34;7.38;;;4.38;;
37843;SDS011;63793;57.632;18.292;2023-07-13T05:40:03;7.10;;;4.90;;
37843;SDS011;63793;57.632;18.292;2023-07-13T05:42:30;6.50;;;4.60;;
37843;SDS011;63793;57.632;18.292;2023-07-13T05:44:57;5.60;;;4.82;;
37843;SDS011;63793;57.632;18.292;2023-07-13T05:47:24;4.50;;;4.10;;
37843;SDS011;63793;57.632;18.292;2023-07-13T05:49:51;6.63;;;4.05;;
37843;SDS011;63793;57.632;18.292;2023-07-13T05:52:18;5.50;;;4.20;;
37843;SDS011;63793;57.632;18.292;2023-07-13T05:54:45;4.97;;;3.92;;
37843;SDS011;63793;57.632;18.292;2023-07-13T05:57:12;8.90;;;4.53;;
37843;SDS011;63793;57.632;18.292;2023-07-13T05:59:39;5.40;;;4.88;;
37843;SDS011;63793;57.632;18.292;2023-07-13T06:02:07;6.90;;;4.45;;
37843;SDS011;63793;57.632;18.292;2023-07-13T06:04:36;4.72;;;3.85;;
37843;SDS011;63793;57.632;18.292;2023-07-13T06:07:03;6.57;;;4.00;;
37843;SDS011;63793;57.632;18.292;2023-07-13T06:09:30;4.85;;;3.80;;
37843;SDS011;63793;57.632;18.292;2023-07-13T06:11:58;6.15;;;4.15;;
37843;SDS011;63793;57.632;18.292;2023-07-13T06:14:25;6.07;;;4.63;;
37843;SDS011;63793;57.632;18.292;2023-07-13T06:16:51;8.48;;;4.25;;
37843;SDS011;63793;57.632;18.292;2023-07-13T06:19:18;4.50;;;3.75;;
37843;SDS011;63793;57.632;18.292;2023-07-13T06:21:45;5.57;;;3.65;;
37843;SDS011;63793;57.632;18.292;2023-07-13T06:24:12;8.35;;;4.63;;
37843;SDS011;63793;57.632;18.292;2023-07-13T06:26:39;4.97;;;4.47;;
37843;SDS011;63793;57.632;18.292;2023-07-13T06:29:06;4.35;;;3.92;;
37843;SDS011;63793;57.632;18.292;2023-07-13T06:31:33;5.47;;;3.90;;
37843;SDS011;63793;57.632;18.292;2023-07-13T06:34:00;5.10;;;4.63;;
37843;SDS011;63793;57.632;18.292;2023-07-13T06:36:27;4.47;;;4.07;;
37843;SDS011;63793;57.632;18.292;2023-07-13T06:38:54;4.63;;;3.42;;
37843;SDS011;63793;57.632;18.292;2023-07-13T06:41:21;7.63;;;5.40;;
37843;SDS011;63793;57.632;18.292;2023-07-13T06:43:48;5.68;;;3.85;;
37843;SDS011;63793;57.632;18.292;2023-07-13T06:46:15;8.80;;;4.80;;
37843;SDS011;63793;57.632;18.292;2023-07-13T06:48:42;6.40;;;4.72;;
37843;SDS011;63793;57.632;18.292;2023-07-13T06:51:09;6.95;;;5.05;;
37843;SDS011;63793;57.632;18.292;2023-07-13T06:53:36;3.63;;;3.33;;
37843;SDS011;63793;57.632;18.292;2023-07-13T06:56:03;5.70;;;3.97;;
37843;SDS011;63793;57.632;18.292;2023-07-13T06:58:33;7.97;;;4.70;;
37843;SDS011;63793;57.632;18.292;2023-07-13T07:01:00;5.72;;;4.22;;
37843;SDS011;63793;57.632;18.292;2023-07-13T07:03:27;7.28;;;4.53;;
37843;SDS011;63793;57.632;18.292;2023-07-13T07:05:59;8.80;;;4.53;;
37843;SDS011;63793;57.632;18.292;2023-07-13T07:08:27;4.97;;;3.88;;
37843;SDS011;63793;57.632;18.292;2023-07-13T07:10:53;4.65;;;4.25;;
37843;SDS011;63793;57.632;18.292;2023-07-13T07:13:20;6.15;;;3.78;;
37843;SDS011;63793;57.632;18.292;2023-07-13T07:15:47;10.23;;;5.55;;
37843;SDS011;63793;57.632;18.292;2023-07-13T07:18:17;5.20;;;4.30;;
37843;SDS011;63793;57.632;18.292;2023-07-13T07:20:44;7.28;;;4.35;;
37843;SDS011;63793;57.632;18.292;2023-07-13T07:23:10;5.53;;;4.93;;
37843;SDS011;63793;57.632;18.292;2023-07-13T07:25:37;4.30;;;3.92;;
37843;SDS011;63793;57.632;18.292;2023-07-13T07:28:08;4.90;;;3.60;;
37843;SDS011;63793;57.632;18.292;2023-07-13T07:30:41;4.75;;;4.32;;
37843;SDS011;63793;57.632;18.292;2023-07-13T07:33:12;6.07;;;4.38;;
37843;SDS011;63793;57.632;18.292;2023-07-13T07:35:40;4.35;;;3.95;;
37843;SDS011;63793;57.632;18.292;2023-07-13T07:38:27;3.92;;;3.63;;
37843;SDS011;63793;57.632;18.292;2023-07-13T07:40:54;5.70;;;3.33;;
37843;SDS011;63793;57.632;18.292;2023-07-13T07:43:23;4.78;;;3.45;;
37843;SDS011;63793;57.632;18.292;2023-07-13T07:45:50;5.68;;;3.90;;
37843;SDS011;63793;57.632;18.292;2023-07-13T07:48:17;7.20;;;3.55;;
37843;SDS011;63793;57.632;18.292;2023-07-13T07:50:44;3.63;;;3.33;;
37843;SDS011;63793;57.632;18.292;2023-07-13T07:53:11;3.90;;;2.90;;
37843;SDS011;63793;57.632;18.292;2023-07-13T07:55:39;3.50;;;3.20;;
37843;SDS011;63793;57.632;18.292;2023-07-13T07:58:26;4.30;;;2.85;;
37843;SDS011;63793;57.632;18.292;2023-07-13T08:01:01;3.10;;;2.80;;
37843;SDS011;63793;57.632;18.292;2023-07-13T08:03:32;3.65;;;2.78;;
37843;SDS011;63793;57.632;18.292;2023-07-13T08:06:02;4.35;;;3.20;;
37843;SDS011;63793;57.632;18.292;2023-07-13T08:08:32;5.35;;;3.13;;
37843;SDS011;63793;57.632;18.292;2023-07-13T08:11:04;4.75;;;3.10;;
37843;SDS011;63793;57.632;18.292;2023-07-13T08:13:53;5.18;;;2.88;;
37843;SDS011;63793;57.632;18.292;2023-07-13T08:16:21;5.15;;;3.03;;
37843;SDS011;63793;57.632;18.292;2023-07-13T08:18:49;5.35;;;4.22;;
37843;SDS011;63793;57.632;18.292;2023-07-13T08:21:16;5.03;;;2.60;;
37843;SDS011;63793;57.632;18.292;2023-07-13T08:23:43;5.47;;;2.88;;
37843;SDS011;63793;57.632;18.292;2023-07-13T08:26:10;6.30;;;3.22;;
37843;SDS011;63793;57.632;18.292;2023-07-13T08:28:37;3.92;;;2.28;;
37843;SDS011;63793;57.632;18.292;2023-07-13T08:31:04;5.55;;;2.40;;
37843;SDS011;63793;57.632;18.292;2023-07-13T08:33:34;2.13;;;1.92;;
37843;SDS011;63793;57.632;18.292;2023-07-13T08:36:02;3.40;;;2.22;;
37843;SDS011;63793;57.632;18.292;2023-07-13T08:38:29;5.03;;;2.15;;
37843;SDS011;63793;57.632;18.292;2023-07-13T08:40:56;2.83;;;2.17;;
37843;SDS011;63793;57.632;18.292;2023-07-13T08:43:28;4.30;;;3.38;;
37843;SDS011;63793;57.632;18.292;2023-07-13T08:46:03;3.20;;;2.10;;
37843;SDS011;63793;57.632;18.292;2023-07-13T08:48:33;3.15;;;2.00;;
37843;SDS011;63793;57.632;18.292;2023-07-13T08:54:04;5.65;;;2.55;;
37843;SDS011;63793;57.632;18.292;2023-07-13T08:56:45;3.55;;;2.35;;
37843;SDS011;63793;57.632;18.292;2023-07-13T08:59:16;3.90;;;2.53;;
37843;SDS011;63793;57.632;18.292;2023-07-13T09:04:48;4.22;;;2.53;;
37843;SDS011;63793;57.632;18.292;2023-07-13T09:10:17;4.90;;;2.35;;
37843;SDS011;63793;57.632;18.292;2023-07-13T09:16:08;2.65;;;2.42;;
37843;SDS011;63793;57.632;18.292;2023-07-13T09:18:42;2.92;;;2.30;;
37843;SDS011;63793;57.632;18.292;2023-07-13T09:23:44;2.67;;;2.42;;
37843;SDS011;63793;57.632;18.292;2023-07-13T09:28:44;3.97;;;2.50;;
37843;SDS011;63793;57.632;18.292;2023-07-13T09:31:17;2.22;;;2.03;;
37843;SDS011;63793;57.632;18.292;2023-07-13T09:33:49;6.30;;;3.20;;
37843;SDS011;63793;57.632;18.292;2023-07-13T09:36:31;2.22;;;2.03;;
37843;SDS011;63793;57.632;18.292;2023-07-13T09:44:38;6.80;;;2.88;;
37843;SDS011;63793;57.632;18.292;2023-07-13T09:47:16;5.43;;;2.40;;
37843;SDS011;63793;57.632;18.292;2023-07-13T09:49:45;4.93;;;3.67;;
37843;SDS011;63793;57.632;18.292;2023-07-13T09:52:14;7.05;;;3.30;;
37843;SDS011;63793;57.632;18.292;2023-07-13T09:54:46;3.88;;;2.60;;
37843;SDS011;63793;57.632;18.292;2023-07-13T09:57:16;3.60;;;2.90;;
37843;SDS011;63793;57.632;18.292;2023-07-13T09:59:49;5.82;;;2.95;;
37843;SDS011;63793;57.632;18.292;2023-07-13T10:02:28;4.20;;;2.30;;
37843;SDS011;63793;57.632;18.292;2023-07-13T10:05:05;3.40;;;2.90;;
37843;SDS011;63793;57.632;18.292;2023-07-13T10:07:43;10.50;;;3.03;;
37843;SDS011;63793;57.632;18.292;2023-07-13T10:10:18;4.90;;;2.42;;
37843;SDS011;63793;57.632;18.292;2023-07-13T10:12:47;3.78;;;3.13;;
37843;SDS011;63793;57.632;18.292;2023-07-13T10:15:15;4.15;;;2.55;;
37843;SDS011;63793;57.632;18.292;2023-07-13T10:17:53;5.22;;;2.42;;
37843;SDS011;63793;57.632;18.292;2023-07-13T10:20:22;4.15;;;2.55;;
37843;SDS011;63793;57.632;18.292;2023-07-13T10:23:11;4.32;;;2.45;;
37843;SDS011;63793;57.632;18.292;2023-07-13T10:25:45;4.60;;;2.28;;
37843;SDS011;63793;57.632;18.292;2023-07-13T10:28:27;3.35;;;2.42;;
37843;SDS011;63793;57.632;18.292;2023-07-13T10:30:58;2.38;;;2.15;;
37843;SDS011;63793;57.632;18.292;2023-07-13T10:33:27;2.63;;;2.35;;
37843;SDS011;63793;57.632;18.292;2023-07-13T10:36:13;4.45;;;2.97;;
37843;SDS011;63793;57.632;18.292;2023-07-13T10:38:56;3.38;;;3.00;;
37843;SDS011;63793;57.632;18.292;2023-07-13T10:41:26;5.10;;;3.47;;
37843;SDS011;63793;57.632;18.292;2023-07-13T10:43:55;3.70;;;3.15;;
37843;SDS011;63793;57.632;18.292;2023-07-13T10:46:25;6.15;;;2.78;;
37843;SDS011;63793;57.632;18.292;2023-07-13T10:48:55;5.90;;;3.40;;
37843;SDS011;63793;57.632;18.292;2023-07-13T10:51:28;6.00;;;2.75;;
37843;SDS011;63793;57.632;18.292;2023-07-13T10:56:53;4.28;;;2.63;;
37843;SDS011;63793;57.632;18.292;2023-07-13T10:59:34;6.07;;;2.92;;
37843;SDS011;63793;57.632;18.292;2023-07-13T11:04:29;2.65;;;2.45;;
37843;SDS011;63793;57.632;18.292;2023-07-13T11:07:10;9.85;;;4.68;;
37843;SDS011;63793;57.632;18.292;2023-07-13T11:09:48;4.32;;;2.45;;
37843;SDS011;63793;57.632;18.292;2023-07-13T11:19:51;4.47;;;2.28;;
37843;SDS011;63793;57.632;18.292;2023-07-13T11:22:26;3.60;;;2.67;;
37843;SDS011;63793;57.632;18.292;2023-07-13T11:25:31;8.20;;;2.20;;
37843;SDS011;63793;57.632;18.292;2023-07-13T11:30:37;2.55;;;2.03;;
37843;SDS011;63793;57.632;18.292;2023-07-13T11:35:36;2.38;;;1.95;;
37843;SDS011;63793;57.632;18.292;2023-07-13T11:38:12;1.80;;;1.67;;
37843;SDS011;63793;57.632;18.292;2023-07-13T11:40:50;4.70;;;2.20;;
37843;SDS011;63793;57.632;18.292;2023-07-13T11:43:22;2.70;;;1.80;;
37843;SDS011;63793;57.632;18.292;2023-07-13T11:50:51;5.05;;;2.42;;
37843;SDS011;63793;57.632;18.292;2023-07-13T11:53:26;2.78;;;1.50;;
37843;SDS011;63793;57.632;18.292;2023-07-13T11:55:55;3.95;;;1.63;;
37843;SDS011;63793;57.632;18.292;2023-07-13T11:58:23;2.35;;;1.35;;
37843;SDS011;63793;57.632;18.292;2023-07-13T12:00:51;2.90;;;1.30;;
37843;SDS011;63793;57.632;18.292;2023-07-13T12:03:21;3.70;;;2.95;;
37843;SDS011;63793;57.632;18.292;2023-07-13T12:08:27;2.53;;;1.13;;
37843;SDS011;63793;57.632;18.292;2023-07-13T12:10:59;2.70;;;1.23;;
37843;SDS011;63793;57.632;18.292;2023-07-13T12:13:35;1.98;;;1.55;;
37843;SDS011;63793;57.632;18.292;2023-07-13T12:16:25;2.97;;;1.50;;
37843;SDS011;63793;57.632;18.292;2023-07-13T12:21:24;6.00;;;2.22;;
37843;SDS011;63793;57.632;18.292;2023-07-13T12:24:05;2.42;;;1.55;;
37843;SDS011;63793;57.632;18.292;2023-07-13T12:26:41;2.10;;;1.02;;
37843;SDS011;63793;57.632;18.292;2023-07-13T12:29:08;6.93;;;3.08;;
37843;SDS011;63793;57.632;18.292;2023-07-13T12:31:42;1.60;;;1.30;;
37843;SDS011;63793;57.632;18.292;2023-07-13T12:34:11;7.28;;;1.52;;
37843;SDS011;63793;57.632;18.292;2023-07-13T12:36:45;1.67;;;1.13;;
37843;SDS011;63793;57.632;18.292;2023-07-13T12:41:51;6.75;;;1.50;;
37843;SDS011;63793;57.632;18.292;2023-07-13T12:44:22;3.58;;;1.83;;
37843;SDS011;63793;57.632;18.292;2023-07-13T12:46:57;2.58;;;0.95;;
37843;SDS011;63793;57.632;18.292;2023-07-13T12:49:31;3.15;;;1.08;;
37843;SDS011;63793;57.632;18.292;2023-07-13T12:52:02;2.80;;;1.55;;
37843;SDS011;63793;57.632;18.292;2023-07-13T12:54:30;2.20;;;1.52;;
37843;SDS011;63793;57.632;18.292;2023-07-13T12:56:58;5.22;;;1.60;;
37843;SDS011;63793;57.632;18.292;2023-07-13T12:59:29;4.47;;;1.13;;
37843;SDS011;63793;57.632;18.292;2023-07-13T13:01:59;3.40;;;1.63;;
37843;SDS011;63793;57.632;18.292;2023-07-13T13:04:27;2.28;;;1.58;;
37843;SDS011;63793;57.632;18.292;2023-07-13T13:07:00;1.60;;;1.17;;
37843;SDS011;63793;57.632;18.292;2023-07-13T13:09:30;2.30;;;1.30;;
37843;SDS011;63793;57.632;18.292;2023-07-13T13:11:57;2.05;;;1.17;;
37843;SDS011;63793;57.632;18.292;2023-07-13T13:14:24;3.30;;;0.80;;
37843;SDS011;63793;57.632;18.292;2023-07-13T13:16:52;3.35;;;1.10;;
37843;SDS011;63793;57.632;18.292;2023-07-13T13:21:49;4.25;;;1.90;;
37843;SDS011;63793;57.632;18.292;2023-07-13T13:24:20;2.40;;;1.20;;
37843;SDS011;63793;57.632;18.292;2023-07-13T13:26:50;2.03;;;0.98;;
37843;SDS011;63793;57.632;18.292;2023-07-13T13:29:20;3.67;;;1.00;;
37843;SDS011;63793;57.632;18.292;2023-07-13T13:31:50;3.67;;;1.30;;
37843;SDS011;63793;57.632;18.292;2023-07-13T13:34:19;3.17;;;1.17;;
37843;SDS011;63793;57.632;18.292;2023-07-13T13:36:49;1.92;;;0.98;;
37843;SDS011;63793;57.632;18.292;2023-07-13T13:39:21;3.45;;;1.88;;
37843;SDS011;63793;57.632;18.292;2023-07-13T13:41:51;3.63;;;1.25;;
37843;SDS011;63793;57.632;18.292;2023-07-13T13:44:20;8.05;;;1.33;;
37843;SDS011;63793;57.632;18.292;2023-07-13T13:46:49;2.47;;;1.42;;
37843;SDS011;63793;57.632;18.292;2023-07-13T13:49:24;2.35;;;1.35;;
37843;SDS011;63793;57.632;18.292;2023-07-13T13:51:53;2.28;;;1.00;;
37843;SDS011;63793;57.632;18.292;2023-07-13T13:54:21;1.88;;;0.98;;
37843;SDS011;63793;57.632;18.292;2023-07-13T13:56:50;1.35;;;1.05;;
37843;SDS011;63793;57.632;18.292;2023-07-13T13:59:18;3.75;;;1.25;;
37843;SDS011;63793;57.632;18.292;2023-07-13T14:01:45;1.75;;;1.02;;
37843;SDS011;63793;57.632;18.292;2023-07-13T14:04:17;1.88;;;1.08;;
37843;SDS011;63793;57.632;18.292;2023-07-13T14:06:46;5.30;;;1.85;;
37843;SDS011;63793;57.632;18.292;2023-07-13T14:09:14;2.45;;;1.23;;
37843;SDS011;63793;57.632;18.292;2023-07-13T14:11:45;2.80;;;1.05;;
37843;SDS011;63793;57.632;18.292;2023-07-13T14:14:23;3.90;;;1.17;;
37843;SDS011;63793;57.632;18.292;2023-07-13T14:16:53;5.05;;;0.80;;
37843;SDS011;63793;57.632;18.292;2023-07-13T14:19:23;7.93;;;1.40;;
37843;SDS011;63793;57.632;18.292;2023-07-13T14:21:50;1.50;;;0.90;;
37843;SDS011;63793;57.632;18.292;2023-07-13T14:24:20;3.35;;;2.00;;
37843;SDS011;63793;57.632;18.292;2023-07-13T14:26:48;1.40;;;0.75;;
37843;SDS011;63793;57.632;18.292;2023-07-13T14:29:16;3.03;;;1.20;;
37843;SDS011;63793;57.632;18.292;2023-07-13T14:31:47;2.90;;;2.60;;
37843;SDS011;63793;57.632;18.292;2023-07-13T14:34:14;4.43;;;1.80;;
37843;SDS011;63793;57.632;18.292;2023-07-13T14:36:45;1.90;;;1.00;;
37843;SDS011;63793;57.632;18.292;2023-07-13T14:39:17;4.50;;;1.30;;
37843;SDS011;63793;57.632;18.292;2023-07-13T14:41:45;4.70;;;1.25;;
37843;SDS011;63793;57.632;18.292;2023-07-13T14:44:17;4.60;;;1.42;;
37843;SDS011;63793;57.632;18.292;2023-07-13T14:46:47;2.03;;;1.02;;
37843;SDS011;63793;57.632;18.292;2023-07-13T14:49:16;2.58;;;1.20;;
37843;SDS011;63793;57.632;18.292;2023-07-13T14:51:54;6.15;;;2.03;;
37843;SDS011;63793;57.632;18.292;2023-07-13T14:54:25;3.33;;;1.77;;
37843;SDS011;63793;57.632;18.292;2023-07-13T14:56:52;2.33;;;1.30;;
37843;SDS011;63793;57.632;18.292;2023-07-13T14:59:19;5.03;;;2.17;;
37843;SDS011;63793;57.632;18.292;2023-07-13T15:01:47;2.95;;;1.08;;
37843;SDS011;63793;57.632;18.292;2023-07-13T15:04:15;3.05;;;1.25;;
37843;SDS011;63793;57.632;18.292;2023-07-13T15:06:55;1.95;;;1.50;;
37843;SDS011;63793;57.632;18.292;2023-07-13T15:09:31;1.90;;;0.95;;
37843;SDS011;63793;57.632;18.292;2023-07-13T15:11:58;4.40;;;1.15;;
37843;SDS011;63793;57.632;18.292;2023-07-13T15:14:25;2.17;;;1.45;;
37843;SDS011;63793;57.632;18.292;2023-07-13T15:16:54;2.35;;;1.58;;
37843;SDS011;63793;57.632;18.292;2023-07-13T15:19:22;2.67;;;1.52;;
37843;SDS011;63793;57.632;18.292;2023-07-13T15:21:50;3.97;;;1.48;;
37843;SDS011;63793;57.632;18.292;2023-07-13T15:24:18;2.95;;;1.55;;
37843;SDS011;63793;57.632;18.292;2023-07-13T15:26:47;3.60;;;1.25;;
37843;SDS011;63793;57.632;18.292;2023-07-13T15:29:15;4.93;;;1.75;;
37843;SDS011;63793;57.632;18.292;2023-07-13T15:31:43;3.38;;;1.27;;
37843;SDS011;63793;57.632;18.292;2023-07-13T15:34:13;3.30;;;1.13;;
37843;SDS011;63793;57.632;18.292;2023-07-13T15:36:43;2.10;;;1.17;;
37843;SDS011;63793;57.632;18.292;2023-07-13T15:39:16;2.25;;;1.05;;
37843;SDS011;63793;57.632;18.292;2023-07-13T15:41:44;3.40;;;1.92;;
37843;SDS011;63793;57.632;18.292;2023-07-13T15:44:24;3.47;;;1.30;;
37843;SDS011;63793;57.632;18.292;2023-07-13T15:46:57;3.65;;;2.67;;
37843;SDS011;63793;57.632;18.292;2023-07-13T15:49:26;2.65;;;1.00;;